Logo AVAMET
Benvolgut visitant, si us plau, ingressa Recuperar contrasenya
AVAMET paisatges

Inforatge Benifairó de les Valls

Dades diàries. Acumulats / Últims 30 dies disponibles

Data Temperatura (°C) Humitat rel. (%) Pressió rel. (hPa) Vent (km/h) Precipitació
Mínima Mitjana Màxima Amplitud
tèrmica
Mínima Mitjana Màxima Mínima Mitjana Màxima Predom. Mitjana Ràfega
màxima
Total
(mm)
Índex-n
Mínima Mitjana Màxima Mínima Mitjana Màxima n
0 a 1
P0 max
mm 5'
Dades mensuals acumulades fins l'últim dia disponible
02/2020 7,9 10,9 14,6 14,8 14,3 19,6 27,4 19,5 31 70 92 1.019 1.025 1.030   4,8 38,6 0,6
Dades anuals acumulades fins l'últim dia disponible
2020 4,4 9,2 14,9 12,8 9,9 17,3 27,4 23,0 31 70 95 1.013 1.024 1.033   5,8 72,4 86,0
Últims 30 dies disponibles
16-02-2020 9,8     12,3     16,6 6,8 72 86 92 1.023 1.025 1.026 W 2,9 17,7 0,0
15-02-2020 9,8     13,3     17,3 7,5 64 77 90 1.023 1.025 1.027 W 4,5 22,5 0,0
14-02-2020 12,2     16,3     20,8 8,6 42 61 82 1.022 1.023 1.025 WNW 8,2 38,6 0,0
13-02-2020 9,9     13,7     18,0 8,1 71 83 90 1.019 1.021 1.023 W 2,9 14,5 0,0
12-02-2020 11,9     15,0     18,2 6,3 58 74 90 1.022 1.023 1.025 W 4,7 25,7 0,0
11-02-2020 12,7     16,9     22,7 10,0 40 60 82 1.021 1.023 1.025 E 3,7 30,6 0,0
10-02-2020 9,8     16,6     23,6 13,8 46 64 86 1.024 1.026 1.029 SE 3,7 27,4 0,0
09-02-2020 9,3     12,4     16,9 7,6 60 80 89 1.026 1.028 1.030 W 4,0 17,7 0,0
08-02-2020 8,9     11,7     16,4 7,5 62 79 88 1.022 1.024 1.026 W 3,4 17,7 0,0
07-02-2020 9,6     11,8     14,3 4,7 64 77 84 1.022 1.024 1.025 WSW 2,3 14,5 0,0
06-02-2020 7,9     11,2     15,7 7,8 57 76 90 1.024 1.026 1.028 W 4,3 27,4 0,0
05-02-2020 8,7     12,0     16,8 8,1 41 70 91 1.026 1.028 1.030 W 3,5 20,9 0,6
03-02-2020 14,1     19,3     27,4 13,3 31 56 77 1.025 1.026 1.028 WNW 6,3 37,0 0,0
02-02-2020 14,6     19,0     23,7 9,1 44 59 82 1.024 1.026 1.028 WNW 9,2 37,0 0,0
01-02-2020 14,1     19,8     25,9 11,8 37 51 67 1.019 1.021 1.025 WNW 9,0 33,8 0,0
31-01-2020 13,6     17,3     21,9 8,3 48 59 75 1.020 1.020 1.022 SO 7,2 35,4 0,0
30-01-2020 13,8     17,3     23,0 9,2 36 55 71 1.018 1.020 1.021 WNW 8,4 48,3 0,0
29-01-2020 14,9     17,8     22,3 7,4 47 59 74 1.019 1.020 1.022 W 7,9 40,2 0,0
28-01-2020 11,7     16,2     18,9 7,2 53 61 77 1.018 1.019 1.020 W 7,7 46,7 0,0
27-01-2020 8,4     13,1     18,5 10,1 43 57 69 1.018 1.021 1.024 W 6,4 38,6 0,0
26-01-2020 8,9     12,1     16,4 7,5 62 77 91 1.017 1.020 1.024 W 3,7 19,3 0,0
25-01-2020 10,7     12,2     14,2 3,5 78 84 91 1.017 1.018 1.021 W 2,4 16,1 0,0
24-01-2020 9,4     11,9     15,3 5,9 63 80 89 1.020 1.021 1.023 W 3,4 17,7 0,0
23-01-2020 6,9     11,1     14,1 7,2 68 80 88 1.017 1.020 1.023 W 4,2 35,4 0,0
22-01-2020 9,4     11,7     14,3 4,9 77 87 95 1.016 1.018 1.020 NE 8,2 46,7 1,0 0,58 0,60
21-01-2020 7,3     10,2     13,1 5,8 82 92 95 1.013 1.016 1.021 NNE 13,0 62,8 36,0 0,59 4,60
20-01-2020 5,4     6,9     9,9 4,5 50 79 93 1.019 1.020 1.022 NNE 24,9 72,4 20,4 0,42 0,90
19-01-2020 6,3     9,4     12,7 6,4 48 76 90 1.014 1.017 1.021 NNE 11,6 53,1 28,0 0,37 1,80
18-01-2020 9,4     13,6     17,9 8,5 45 55 75 1.018 1.026 1.031 SW 5,5 35,4 0,0
17-01-2020 9,2     14,7     19,7 10,5 38 50 79 1.025 1.027 1.031 W 9,7 45,1 0,0
Últims 13 mesos disponibles
01/2020 4,4 8,5 14,9 11,8 9,9 16,1 23,0 18,6 50 70 92 1.016 1.024 1.032 W 6,2 72,4 85,4
12/2019 5,9 11,3 17,6 14,3 12,9 18,1 24,9 19,0 40 66 90 1.001 1.018 1.032 W 6,9 77,2 70,4
11/2019 7,1 11,5 16,8 15,2 15,9 19,3 23,6 16,5 43 56 73 997 1.010 1.017 W 10,3 77,2 2,4
Tots els anys disponibles
Temperatura (°C)
Humitat relativa (%)
Velocitat del vent i ràfega màxima (km/h)
Direcció del vent (°)
Pressió (hPa)
Precipitació (mm)
Nota sobre les dades: s'avisa a l'usuari de la provisionalitat i no oficialitat d'aquestes dades
Logo AVAMET blanc
Web allotjada a Sollutia
Llicència de Creative CommonsLa web d'AVAMET i els seus continguts estan subjectes a una llicència de
Reconeixement - No Comercial - Compartir igual
Últimes estacions:  Sorita (AVAMET), Massalavés - Ajuntament (Soci/Inforatge), Albuixech - Polígon (Inforatge), La Torre d'en Besora (Ajuntament soci), Xixona - Sogorb Barranc Blanc (Soci), Pedreguer - Patronat (Soci) - - -